sensor_id;sensor_type;location;lat;lon;timestamp;temperature;humidity
13496;DHT22;6820;49.374;8.452;2022-12-18T00:03:27;-3.97;99.99
13496;DHT22;6820;49.374;8.452;2022-12-18T00:07:29;-3.95;99.99
13496;DHT22;6820;49.374;8.452;2022-12-18T00:11:31;-3.97;99.99
13496;DHT22;6820;49.374;8.452;2022-12-18T00:15:34;-3.94;99.99
13496;DHT22;6820;49.374;8.452;2022-12-18T00:19:35;-3.91;99.99
13496;DHT22;6820;49.374;8.452;2022-12-18T00:23:38;-3.84;99.99
13496;DHT22;6820;49.374;8.452;2022-12-18T00:27:41;-3.88;99.99
13496;DHT22;6820;49.374;8.452;2022-12-18T00:31:43;-3.91;99.99
13496;DHT22;6820;49.374;8.452;2022-12-18T00:35:45;-3.88;99.99
13496;DHT22;6820;49.374;8.452;2022-12-18T00:39:47;-3.92;99.99
13496;DHT22;6820;49.374;8.452;2022-12-18T00:43:49;-3.95;99.99
13496;DHT22;6820;49.374;8.452;2022-12-18T00:47:50;-3.99;99.99
13496;DHT22;6820;49.374;8.452;2022-12-18T00:51:55;-3.99;99.99
13496;DHT22;6820;49.374;8.452;2022-12-18T00:55:57;-4.01;99.99
13496;DHT22;6820;49.374;8.452;2022-12-18T00:59:58;-4.01;99.99
13496;DHT22;6820;49.374;8.452;2022-12-18T01:04:00;-4.02;99.99
13496;DHT22;6820;49.374;8.452;2022-12-18T01:08:03;-4.06;99.99
13496;DHT22;6820;49.374;8.452;2022-12-18T01:12:05;-4.01;99.99
13496;DHT22;6820;49.374;8.452;2022-12-18T01:16:07;-4.02;99.99
13496;DHT22;6820;49.374;8.452;2022-12-18T01:20:11;-4.01;99.99
13496;DHT22;6820;49.374;8.452;2022-12-18T01:24:13;-4.01;99.99
13496;DHT22;6820;49.374;8.452;2022-12-18T01:28:15;-4.01;99.99
13496;DHT22;6820;49.374;8.452;2022-12-18T01:32:17;-4.07;99.99
13496;DHT22;6820;49.374;8.452;2022-12-18T01:36:19;-4.06;99.99
13496;DHT22;6820;49.374;8.452;2022-12-18T01:40:26;-4.13;99.99
13496;DHT22;6820;49.374;8.452;2022-12-18T01:44:51;-4.13;99.99
13496;DHT22;6820;49.374;8.452;2022-12-18T01:49:06;-4.12;99.99
13496;DHT22;6820;49.374;8.452;2022-12-18T01:53:13;-4.10;99.99
13496;DHT22;6820;49.374;8.452;2022-12-18T01:57:18;-4.12;99.99
13496;DHT22;6820;49.374;8.452;2022-12-18T02:01:21;-4.20;99.99
13496;DHT22;6820;49.374;8.452;2022-12-18T02:09:48;-4.31;99.99
13496;DHT22;6820;49.374;8.452;2022-12-18T02:18:33;-4.37;99.99
13496;DHT22;6820;49.374;8.452;2022-12-18T02:26:50;-4.33;99.99
13496;DHT22;6820;49.374;8.452;2022-12-18T02:30:59;-4.36;99.99
13496;DHT22;6820;49.374;8.452;2022-12-18T02:35:04;-4.36;99.99
13496;DHT22;6820;49.374;8.452;2022-12-18T02:39:10;-4.37;99.99
13496;DHT22;6820;49.374;8.452;2022-12-18T02:43:19;-4.36;99.99
13496;DHT22;6820;49.374;8.452;2022-12-18T02:47:24;-4.40;99.99
13496;DHT22;6820;49.374;8.452;2022-12-18T02:51:32;-4.36;99.99
13496;DHT22;6820;49.374;8.452;2022-12-18T02:59:56;-4.37;99.99
13496;DHT22;6820;49.374;8.452;2022-12-18T03:04:58;-4.37;99.99
13496;DHT22;6820;49.374;8.452;2022-12-18T03:09:06;-4.34;99.99
13496;DHT22;6820;49.374;8.452;2022-12-18T03:13:23;-4.34;99.99
13496;DHT22;6820;49.374;8.452;2022-12-18T03:17:32;-4.30;99.99
13496;DHT22;6820;49.374;8.452;2022-12-18T03:21:45;-4.38;99.99
13496;DHT22;6820;49.374;8.452;2022-12-18T03:25:51;-4.38;99.99
13496;DHT22;6820;49.374;8.452;2022-12-18T03:30:08;-4.41;99.99
13496;DHT22;6820;49.374;8.452;2022-12-18T03:34:14;-4.52;99.99
13496;DHT22;6820;49.374;8.452;2022-12-18T03:38:23;-4.46;99.99
13496;DHT22;6820;49.374;8.452;2022-12-18T03:42:28;-4.44;99.99
13496;DHT22;6820;49.374;8.452;2022-12-18T03:46:43;-4.44;99.99
13496;DHT22;6820;49.374;8.452;2022-12-18T03:51:10;-4.38;99.99
13496;DHT22;6820;49.374;8.452;2022-12-18T03:55:18;-4.38;99.99
13496;DHT22;6820;49.374;8.452;2022-12-18T03:59:29;-4.34;99.99
13496;DHT22;6820;49.374;8.452;2022-12-18T04:03:32;-4.33;99.99
13496;DHT22;6820;49.374;8.452;2022-12-18T04:07:36;-4.33;99.99
13496;DHT22;6820;49.374;8.452;2022-12-18T04:11:42;-4.34;99.99
13496;DHT22;6820;49.374;8.452;2022-12-18T04:15:47;-4.33;99.99
13496;DHT22;6820;49.374;8.452;2022-12-18T04:19:50;-4.36;99.99
13496;DHT22;6820;49.374;8.452;2022-12-18T04:23:52;-4.38;99.99
13496;DHT22;6820;49.374;8.452;2022-12-18T04:27:56;-4.40;99.99
13496;DHT22;6820;49.374;8.452;2022-12-18T04:31:57;-4.48;99.99
13496;DHT22;6820;49.374;8.452;2022-12-18T04:36:01;-4.46;99.99
13496;DHT22;6820;49.374;8.452;2022-12-18T04:40:03;-4.46;99.99
13496;DHT22;6820;49.374;8.452;2022-12-18T04:44:13;-4.48;99.99
13496;DHT22;6820;49.374;8.452;2022-12-18T04:48:15;-4.45;99.99
13496;DHT22;6820;49.374;8.452;2022-12-18T04:52:16;-4.49;99.99
13496;DHT22;6820;49.374;8.452;2022-12-18T04:56:18;-4.48;99.99
13496;DHT22;6820;49.374;8.452;2022-12-18T05:00:20;-4.54;99.99
13496;DHT22;6820;49.374;8.452;2022-12-18T05:04:22;-4.52;99.99
13496;DHT22;6820;49.374;8.452;2022-12-18T05:08:24;-4.56;99.99
13496;DHT22;6820;49.374;8.452;2022-12-18T05:12:25;-4.59;99.99
13496;DHT22;6820;49.374;8.452;2022-12-18T05:16:27;-4.59;99.99
13496;DHT22;6820;49.374;8.452;2022-12-18T05:20:29;-4.62;99.99
13496;DHT22;6820;49.374;8.452;2022-12-18T05:24:30;-4.65;99.99
13496;DHT22;6820;49.374;8.452;2022-12-18T05:28:33;-4.65;99.99
13496;DHT22;6820;49.374;8.452;2022-12-18T05:32:35;-4.66;99.99
13496;DHT22;6820;49.374;8.452;2022-12-18T05:36:37;-4.66;99.99
13496;DHT22;6820;49.374;8.452;2022-12-18T05:40:41;-4.67;99.99
13496;DHT22;6820;49.374;8.452;2022-12-18T05:44:44;-4.65;99.99
13496;DHT22;6820;49.374;8.452;2022-12-18T05:48:46;-4.63;99.99
13496;DHT22;6820;49.374;8.452;2022-12-18T05:52:48;-4.69;99.99
13496;DHT22;6820;49.374;8.452;2022-12-18T05:56:49;-4.72;99.99
13496;DHT22;6820;49.374;8.452;2022-12-18T06:00:51;-4.76;99.99
13496;DHT22;6820;49.374;8.452;2022-12-18T06:04:52;-4.81;99.99
13496;DHT22;6820;49.374;8.452;2022-12-18T06:08:54;-4.81;99.99
13496;DHT22;6820;49.374;8.452;2022-12-18T06:12:58;-4.88;99.99
13496;DHT22;6820;49.374;8.452;2022-12-18T06:17:01;-4.94;99.99
13496;DHT22;6820;49.374;8.452;2022-12-18T06:21:02;-5.01;99.99
13496;DHT22;6820;49.374;8.452;2022-12-18T06:25:04;-5.09;99.99
13496;DHT22;6820;49.374;8.452;2022-12-18T06:29:08;-5.12;99.99
13496;DHT22;6820;49.374;8.452;2022-12-18T06:33:09;-5.20;99.99
13496;DHT22;6820;49.374;8.452;2022-12-18T06:37:11;-5.17;99.99
13496;DHT22;6820;49.374;8.452;2022-12-18T06:41:14;-5.27;99.99
13496;DHT22;6820;49.374;8.452;2022-12-18T06:45:17;-5.23;99.99
13496;DHT22;6820;49.374;8.452;2022-12-18T06:49:19;-5.17;99.99
13496;DHT22;6820;49.374;8.452;2022-12-18T06:53:21;-5.21;99.99
13496;DHT22;6820;49.374;8.452;2022-12-18T06:57:22;-5.25;99.99
13496;DHT22;6820;49.374;8.452;2022-12-18T07:01:24;-5.24;99.99
13496;DHT22;6820;49.374;8.452;2022-12-18T07:05:26;-5.24;99.99
13496;DHT22;6820;49.374;8.452;2022-12-18T07:09:27;-5.25;99.99
13496;DHT22;6820;49.374;8.452;2022-12-18T07:13:29;-5.27;99.99
13496;DHT22;6820;49.374;8.452;2022-12-18T07:17:31;-5.28;99.99
13496;DHT22;6820;49.374;8.452;2022-12-18T07:21:33;-5.27;99.99
13496;DHT22;6820;49.374;8.452;2022-12-18T07:25:35;-5.28;99.99
13496;DHT22;6820;49.374;8.452;2022-12-18T07:29:37;-5.31;99.99
13496;DHT22;6820;49.374;8.452;2022-12-18T07:33:39;-5.30;99.99
13496;DHT22;6820;49.374;8.452;2022-12-18T07:37:42;-5.31;99.99
13496;DHT22;6820;49.374;8.452;2022-12-18T07:41:43;-5.33;99.99
13496;DHT22;6820;49.374;8.452;2022-12-18T07:46:07;-5.35;99.99
13496;DHT22;6820;49.374;8.452;2022-12-18T07:50:10;-5.38;99.99
13496;DHT22;6820;49.374;8.452;2022-12-18T07:54:12;-5.33;99.99
13496;DHT22;6820;49.374;8.452;2022-12-18T07:58:13;-5.28;99.99
13496;DHT22;6820;49.374;8.452;2022-12-18T08:02:15;-5.28;99.99
13496;DHT22;6820;49.374;8.452;2022-12-18T08:06:16;-5.24;99.99
13496;DHT22;6820;49.374;8.452;2022-12-18T08:10:18;-5.21;99.99
13496;DHT22;6820;49.374;8.452;2022-12-18T08:14:20;-5.11;99.99
13496;DHT22;6820;49.374;8.452;2022-12-18T08:18:22;-5.08;99.99
13496;DHT22;6820;49.374;8.452;2022-12-18T08:22:24;-5.02;99.99
13496;DHT22;6820;49.374;8.452;2022-12-18T08:26:27;-5.08;99.99
13496;DHT22;6820;49.374;8.452;2022-12-18T08:30:30;-5.09;99.99
13496;DHT22;6820;49.374;8.452;2022-12-18T08:34:32;-5.01;99.99
13496;DHT22;6820;49.374;8.452;2022-12-18T08:38:34;-4.97;99.99
13496;DHT22;6820;49.374;8.452;2022-12-18T08:42:35;-4.90;99.99
13496;DHT22;6820;49.374;8.452;2022-12-18T08:46:55;-4.81;99.99
13496;DHT22;6820;49.374;8.452;2022-12-18T08:50:57;-4.74;99.99
13496;DHT22;6820;49.374;8.452;2022-12-18T08:55:00;-4.67;99.99
13496;DHT22;6820;49.374;8.452;2022-12-18T08:59:01;-4.62;99.99
13496;DHT22;6820;49.374;8.452;2022-12-18T09:03:03;-4.54;99.99
13496;DHT22;6820;49.374;8.452;2022-12-18T09:07:05;-4.46;99.99
13496;DHT22;6820;49.374;8.452;2022-12-18T09:11:28;-4.38;99.99
13496;DHT22;6820;49.374;8.452;2022-12-18T09:15:30;-4.30;99.99
13496;DHT22;6820;49.374;8.452;2022-12-18T09:19:31;-4.20;99.99
13496;DHT22;6820;49.374;8.452;2022-12-18T09:23:33;-4.16;99.99
13496;DHT22;6820;49.374;8.452;2022-12-18T09:27:34;-4.09;99.99
13496;DHT22;6820;49.374;8.452;2022-12-18T09:31:36;-4.02;99.99
13496;DHT22;6820;49.374;8.452;2022-12-18T09:35:40;-3.98;99.99
13496;DHT22;6820;49.374;8.452;2022-12-18T09:39:42;-3.91;99.99
13496;DHT22;6820;49.374;8.452;2022-12-18T09:43:48;-3.84;99.99
13496;DHT22;6820;49.374;8.452;2022-12-18T09:47:52;-3.80;99.99
13496;DHT22;6820;49.374;8.452;2022-12-18T09:52:09;-3.70;99.99
13496;DHT22;6820;49.374;8.452;2022-12-18T09:56:16;-3.59;99.99
13496;DHT22;6820;49.374;8.452;2022-12-18T10:00:24;-3.52;99.99
13496;DHT22;6820;49.374;8.452;2022-12-18T10:04:26;-3.54;99.99
13496;DHT22;6820;49.374;8.452;2022-12-18T10:08:42;-3.51;99.99
13496;DHT22;6820;49.374;8.452;2022-12-18T10:13:12;-3.39;99.99
13496;DHT22;6820;49.374;8.452;2022-12-18T10:17:26;-3.33;99.99
13496;DHT22;6820;49.374;8.452;2022-12-18T10:21:45;-3.25;99.99
13496;DHT22;6820;49.374;8.452;2022-12-18T10:26:09;-3.19;99.99
13496;DHT22;6820;49.374;8.452;2022-12-18T10:30:15;-3.12;99.99
13496;DHT22;6820;49.374;8.452;2022-12-18T10:34:18;-3.04;99.99
13496;DHT22;6820;49.374;8.452;2022-12-18T10:42:23;-2.98;99.99
13496;DHT22;6820;49.374;8.452;2022-12-18T10:46:25;-2.89;99.99
13496;DHT22;6820;49.374;8.452;2022-12-18T10:50:31;-2.83;99.99
13496;DHT22;6820;49.374;8.452;2022-12-18T10:54:55;-2.74;99.99
13496;DHT22;6820;49.374;8.452;2022-12-18T10:59:07;-2.71;99.99
13496;DHT22;6820;49.374;8.452;2022-12-18T11:03:29;-2.65;99.99
13496;DHT22;6820;49.374;8.452;2022-12-18T11:08:02;-2.56;99.99
13496;DHT22;6820;49.374;8.452;2022-12-18T11:12:18;-2.47;99.99
13496;DHT22;6820;49.374;8.452;2022-12-18T11:16:20;-2.44;99.99
13496;DHT22;6820;49.374;8.452;2022-12-18T11:24:35;-2.35;99.99
13496;DHT22;6820;49.374;8.452;2022-12-18T11:28:46;-2.26;99.99
13496;DHT22;6820;49.374;8.452;2022-12-18T11:33:02;-2.21;99.99
13496;DHT22;6820;49.374;8.452;2022-12-18T11:37:12;-2.11;99.99
13496;DHT22;6820;49.374;8.452;2022-12-18T11:46:04;-2.00;99.99
13496;DHT22;6820;49.374;8.452;2022-12-18T11:54:23;-1.92;99.99
13496;DHT22;6820;49.374;8.452;2022-12-18T12:20:12;-1.67;99.99
13496;DHT22;6820;49.374;8.452;2022-12-18T12:28:52;-1.51;99.99
13496;DHT22;6820;49.374;8.452;2022-12-18T12:41:54;-1.44;99.99
13496;DHT22;6820;49.374;8.452;2022-12-18T12:46:16;-1.41;99.99
13496;DHT22;6820;49.374;8.452;2022-12-18T12:50:22;-1.31;99.99
13496;DHT22;6820;49.374;8.452;2022-12-18T12:54:25;-1.28;99.99
13496;DHT22;6820;49.374;8.452;2022-12-18T12:58:31;-1.25;99.99
13496;DHT22;6820;49.374;8.452;2022-12-18T13:02:49;-1.18;99.99
13496;DHT22;6820;49.374;8.452;2022-12-18T13:16:04;-1.13;99.99
13496;DHT22;6820;49.374;8.452;2022-12-18T13:20:08;-1.10;99.99
13496;DHT22;6820;49.374;8.452;2022-12-18T13:24:37;-1.10;99.99
13496;DHT22;6820;49.374;8.452;2022-12-18T13:32:48;-1.08;99.99
13496;DHT22;6820;49.374;8.452;2022-12-18T13:41:33;-1.08;99.99
13496;DHT22;6820;49.374;8.452;2022-12-18T13:45:39;-1.11;99.99
13496;DHT22;6820;49.374;8.452;2022-12-18T13:49:44;-1.13;99.99
13496;DHT22;6820;49.374;8.452;2022-12-18T13:53:49;-1.15;99.99
13496;DHT22;6820;49.374;8.452;2022-12-18T13:58:02;-1.14;99.99
13496;DHT22;6820;49.374;8.452;2022-12-18T14:06:16;-1.14;99.99
13496;DHT22;6820;49.374;8.452;2022-12-18T14:10:18;-1.17;99.99
13496;DHT22;6820;49.374;8.452;2022-12-18T14:14:42;-1.17;99.99
13496;DHT22;6820;49.374;8.452;2022-12-18T14:18:54;-1.17;99.99
13496;DHT22;6820;49.374;8.452;2022-12-18T14:23:24;-1.18;99.99
13496;DHT22;6820;49.374;8.452;2022-12-18T14:27:29;-1.20;99.99
13496;DHT22;6820;49.374;8.452;2022-12-18T14:31:31;-1.21;99.99
13496;DHT22;6820;49.374;8.452;2022-12-18T14:35:33;-1.25;99.99
13496;DHT22;6820;49.374;8.452;2022-12-18T14:39:37;-1.26;99.99
13496;DHT22;6820;49.374;8.452;2022-12-18T14:43:40;-1.31;99.99
13496;DHT22;6820;49.374;8.452;2022-12-18T14:47:44;-1.33;99.99
13496;DHT22;6820;49.374;8.452;2022-12-18T14:51:49;-1.38;99.99
13496;DHT22;6820;49.374;8.452;2022-12-18T14:55:54;-1.43;99.99
13496;DHT22;6820;49.374;8.452;2022-12-18T15:00:06;-1.47;99.99
13496;DHT22;6820;49.374;8.452;2022-12-18T15:04:35;-1.51;99.99
13496;DHT22;6820;49.374;8.452;2022-12-18T15:08:41;-1.54;99.99
13496;DHT22;6820;49.374;8.452;2022-12-18T15:16:57;-1.61;99.99
13496;DHT22;6820;49.374;8.452;2022-12-18T15:21:11;-1.61;99.99
13496;DHT22;6820;49.374;8.452;2022-12-18T15:29:28;-1.70;99.99
13496;DHT22;6820;49.374;8.452;2022-12-18T15:33:31;-1.71;99.99
13496;DHT22;6820;49.374;8.452;2022-12-18T15:37:38;-1.71;99.99
13496;DHT22;6820;49.374;8.452;2022-12-18T15:41:42;-1.72;99.99
13496;DHT22;6820;49.374;8.452;2022-12-18T15:46:04;-1.74;99.99
13496;DHT22;6820;49.374;8.452;2022-12-18T15:50:08;-1.74;99.99
13496;DHT22;6820;49.374;8.452;2022-12-18T15:54:11;-1.71;99.99
13496;DHT22;6820;49.374;8.452;2022-12-18T15:58:14;-1.70;99.99
13496;DHT22;6820;49.374;8.452;2022-12-18T16:02:17;-1.68;99.99
13496;DHT22;6820;49.374;8.452;2022-12-18T16:06:20;-1.65;99.99
13496;DHT22;6820;49.374;8.452;2022-12-18T16:10:22;-1.62;99.99
13496;DHT22;6820;49.374;8.452;2022-12-18T16:14:26;-1.62;99.99
13496;DHT22;6820;49.374;8.452;2022-12-18T16:18:29;-1.59;99.99
13496;DHT22;6820;49.374;8.452;2022-12-18T16:22:30;-1.57;99.99
13496;DHT22;6820;49.374;8.452;2022-12-18T16:26:32;-1.59;99.99
13496;DHT22;6820;49.374;8.452;2022-12-18T16:30:34;-1.59;99.99
13496;DHT22;6820;49.374;8.452;2022-12-18T16:34:39;-1.56;99.99
13496;DHT22;6820;49.374;8.452;2022-12-18T16:38:40;-1.53;99.99
13496;DHT22;6820;49.374;8.452;2022-12-18T16:42:43;-1.50;99.99
13496;DHT22;6820;49.374;8.452;2022-12-18T16:46:46;-1.47;99.99
13496;DHT22;6820;49.374;8.452;2022-12-18T16:50:48;-1.46;99.99
13496;DHT22;6820;49.374;8.452;2022-12-18T16:54:50;-1.44;99.99
13496;DHT22;6820;49.374;8.452;2022-12-18T16:58:55;-1.41;99.99
13496;DHT22;6820;49.374;8.452;2022-12-18T17:02:59;-1.39;99.99
13496;DHT22;6820;49.374;8.452;2022-12-18T17:07:01;-1.38;99.99
13496;DHT22;6820;49.374;8.452;2022-12-18T17:11:05;-1.33;99.99
13496;DHT22;6820;49.374;8.452;2022-12-18T17:15:08;-1.33;99.99
13496;DHT22;6820;49.374;8.452;2022-12-18T17:19:10;-1.32;99.99
13496;DHT22;6820;49.374;8.452;2022-12-18T17:23:17;-1.33;99.99
13496;DHT22;6820;49.374;8.452;2022-12-18T17:27:19;-1.32;99.99
13496;DHT22;6820;49.374;8.452;2022-12-18T17:31:21;-1.31;99.99
13496;DHT22;6820;49.374;8.452;2022-12-18T17:35:24;-1.31;99.99
13496;DHT22;6820;49.374;8.452;2022-12-18T17:39:25;-1.31;99.99
13496;DHT22;6820;49.374;8.452;2022-12-18T17:43:29;-1.28;99.99
13496;DHT22;6820;49.374;8.452;2022-12-18T17:47:30;-1.26;99.99
13496;DHT22;6820;49.374;8.452;2022-12-18T17:51:32;-1.25;99.99
13496;DHT22;6820;49.374;8.452;2022-12-18T17:55:34;-1.25;99.99
13496;DHT22;6820;49.374;8.452;2022-12-18T17:59:35;-1.21;99.99
13496;DHT22;6820;49.374;8.452;2022-12-18T18:03:37;-1.20;99.99
13496;DHT22;6820;49.374;8.452;2022-12-18T18:07:39;-1.20;99.99
13496;DHT22;6820;49.374;8.452;2022-12-18T18:11:41;-1.18;99.99
13496;DHT22;6820;49.374;8.452;2022-12-18T18:16:02;-1.15;99.99
13496;DHT22;6820;49.374;8.452;2022-12-18T18:20:04;-1.15;99.99
13496;DHT22;6820;49.374;8.452;2022-12-18T18:24:06;-1.17;99.99
13496;DHT22;6820;49.374;8.452;2022-12-18T18:28:09;-1.15;99.99
13496;DHT22;6820;49.374;8.452;2022-12-18T18:32:11;-1.18;99.99
13496;DHT22;6820;49.374;8.452;2022-12-18T18:36:13;-1.18;99.99
13496;DHT22;6820;49.374;8.452;2022-12-18T18:40:14;-1.18;99.99
13496;DHT22;6820;49.374;8.452;2022-12-18T18:44:17;-1.14;99.99
13496;DHT22;6820;49.374;8.452;2022-12-18T18:48:23;-1.15;99.99
13496;DHT22;6820;49.374;8.452;2022-12-18T18:52:29;-1.14;99.99
13496;DHT22;6820;49.374;8.452;2022-12-18T18:56:30;-1.13;99.99
13496;DHT22;6820;49.374;8.452;2022-12-18T19:00:54;-1.14;99.99
13496;DHT22;6820;49.374;8.452;2022-12-18T19:05:04;-1.13;99.99
13496;DHT22;6820;49.374;8.452;2022-12-18T19:09:05;-1.11;99.99
13496;DHT22;6820;49.374;8.452;2022-12-18T19:13:09;-1.10;99.99
13496;DHT22;6820;49.374;8.452;2022-12-18T19:17:21;-1.10;99.99
13496;DHT22;6820;49.374;8.452;2022-12-18T19:21:31;-1.07;99.99
13496;DHT22;6820;49.374;8.452;2022-12-18T19:25:38;-1.07;99.99
13496;DHT22;6820;49.374;8.452;2022-12-18T19:29:42;-1.03;99.99
13496;DHT22;6820;49.374;8.452;2022-12-18T19:33:45;-1.02;99.99
13496;DHT22;6820;49.374;8.452;2022-12-18T19:37:47;-0.97;99.99
13496;DHT22;6820;49.374;8.452;2022-12-18T19:41:49;-0.96;99.99
13496;DHT22;6820;49.374;8.452;2022-12-18T19:45:53;-0.95;99.99
13496;DHT22;6820;49.374;8.452;2022-12-18T19:49:55;-0.93;99.99
13496;DHT22;6820;49.374;8.452;2022-12-18T19:53:57;-0.93;99.99
13496;DHT22;6820;49.374;8.452;2022-12-18T19:58:02;-0.92;99.99
13496;DHT22;6820;49.374;8.452;2022-12-18T20:02:03;-0.92;99.99
13496;DHT22;6820;49.374;8.452;2022-12-18T20:10:27;-0.93;99.99
13496;DHT22;6820;49.374;8.452;2022-12-18T20:14:29;-0.95;99.99
13496;DHT22;6820;49.374;8.452;2022-12-18T20:18:31;-0.95;99.99
13496;DHT22;6820;49.374;8.452;2022-12-18T20:22:33;-0.95;99.99
13496;DHT22;6820;49.374;8.452;2022-12-18T20:26:35;-0.92;99.99
13496;DHT22;6820;49.374;8.452;2022-12-18T20:30:36;-0.92;99.99
13496;DHT22;6820;49.374;8.452;2022-12-18T20:34:38;-0.95;99.99
13496;DHT22;6820;49.374;8.452;2022-12-18T20:38:41;-0.93;99.99
13496;DHT22;6820;49.374;8.452;2022-12-18T20:42:44;-0.97;99.99
13496;DHT22;6820;49.374;8.452;2022-12-18T20:46:46;-0.97;99.99
13496;DHT22;6820;49.374;8.452;2022-12-18T20:50:55;-0.97;99.99
13496;DHT22;6820;49.374;8.452;2022-12-18T20:55:04;-1.00;99.99
13496;DHT22;6820;49.374;8.452;2022-12-18T20:59:07;-0.99;99.99
13496;DHT22;6820;49.374;8.452;2022-12-18T21:03:10;-1.00;99.99
13496;DHT22;6820;49.374;8.452;2022-12-18T21:07:13;-1.00;99.99
13496;DHT22;6820;49.374;8.452;2022-12-18T21:15:35;-1.00;99.99
13496;DHT22;6820;49.374;8.452;2022-12-18T21:19:37;-0.97;99.99
13496;DHT22;6820;49.374;8.452;2022-12-18T21:23:38;-0.99;99.99
13496;DHT22;6820;49.374;8.452;2022-12-18T21:27:40;-0.99;99.99
13496;DHT22;6820;49.374;8.452;2022-12-18T21:31:42;-0.97;99.99
13496;DHT22;6820;49.374;8.452;2022-12-18T21:35:45;-0.96;99.99
13496;DHT22;6820;49.374;8.452;2022-12-18T21:39:47;-0.96;99.99
13496;DHT22;6820;49.374;8.452;2022-12-18T21:43:52;-0.96;99.99
13496;DHT22;6820;49.374;8.452;2022-12-18T21:48:06;-1.00;99.99
13496;DHT22;6820;49.374;8.452;2022-12-18T21:52:07;-0.96;99.99
13496;DHT22;6820;49.374;8.452;2022-12-18T21:56:09;-0.99;99.99
13496;DHT22;6820;49.374;8.452;2022-12-18T22:00:11;-0.96;99.99
13496;DHT22;6820;49.374;8.452;2022-12-18T22:04:19;-0.95;99.99
13496;DHT22;6820;49.374;8.452;2022-12-18T22:08:22;-0.93;99.99
13496;DHT22;6820;49.374;8.452;2022-12-18T22:12:23;-0.93;99.99
13496;DHT22;6820;49.374;8.452;2022-12-18T22:16:45;-0.90;99.99
13496;DHT22;6820;49.374;8.452;2022-12-18T22:20:48;-0.85;99.99
13496;DHT22;6820;49.374;8.452;2022-12-18T22:24:49;-0.83;99.99
13496;DHT22;6820;49.374;8.452;2022-12-18T22:28:51;-0.83;99.99
13496;DHT22;6820;49.374;8.452;2022-12-18T22:33:12;-0.83;99.99
13496;DHT22;6820;49.374;8.452;2022-12-18T22:37:13;-0.80;99.99
13496;DHT22;6820;49.374;8.452;2022-12-18T22:41:15;-0.78;99.99
13496;DHT22;6820;49.374;8.452;2022-12-18T22:45:18;-0.77;99.99
13496;DHT22;6820;49.374;8.452;2022-12-18T22:49:23;-0.77;99.99
13496;DHT22;6820;49.374;8.452;2022-12-18T22:53:25;-0.76;99.99
13496;DHT22;6820;49.374;8.452;2022-12-18T22:57:27;-0.74;99.99
13496;DHT22;6820;49.374;8.452;2022-12-18T23:01:29;-0.76;99.99
13496;DHT22;6820;49.374;8.452;2022-12-18T23:05:32;-0.74;99.99
13496;DHT22;6820;49.374;8.452;2022-12-18T23:09:34;-0.74;99.99
13496;DHT22;6820;49.374;8.452;2022-12-18T23:13:36;-0.76;99.99
13496;DHT22;6820;49.374;8.452;2022-12-18T23:17:38;-0.71;99.99
13496;DHT22;6820;49.374;8.452;2022-12-18T23:21:39;-0.73;99.99
13496;DHT22;6820;49.374;8.452;2022-12-18T23:25:41;-0.70;99.99
13496;DHT22;6820;49.374;8.452;2022-12-18T23:29:42;-0.68;99.99
13496;DHT22;6820;49.374;8.452;2022-12-18T23:33:47;-0.65;99.99
13496;DHT22;6820;49.374;8.452;2022-12-18T23:37:50;-0.65;99.99
13496;DHT22;6820;49.374;8.452;2022-12-18T23:42:00;-0.65;99.99
13496;DHT22;6820;49.374;8.452;2022-12-18T23:46:02;-0.65;99.99
13496;DHT22;6820;49.374;8.452;2022-12-18T23:50:10;-0.65;99.99
13496;DHT22;6820;49.374;8.452;2022-12-18T23:54:12;-0.63;99.99
13496;DHT22;6820;49.374;8.452;2022-12-18T23:58:15;-0.62;99.99
